首页
METAR-TAF:

METAR-TAF

机场 :

斯图加特机场

斯图加特, 德国

纬度: 48-41N, 经度: 009-13E, 海拔: 396米

当前天气观测

该预报发布于38分钟前的07:20 UTC
风速2节,风向多变
温度 -5°C
湿度 86%
气压 1034 hPa
能見度: 4000
散云层高于500英尺
轻雾

METAR: EDDS 220720Z VRB02KT 4000 BR SCT005 M05/M07 Q1034 TEMPO BKN005

时间: 08:58 (07:58 UTC)

预报

该预报发布于2小时和58分钟前的05:00 UTC
预报有效从22日的 06点(UTC)到 23日的 06点(UTC)
风速3节,风向多变
能見度: 7000
散云层高于700英尺
短暂存在
从 22日的 06点(UTC)到 22日的 12点(UTC)
能見度: 3000
多云层高于500英尺
轻雾
几率 30% :
短暂存在
从 23日的 00点(UTC)到 23日的 06点(UTC)
能見度: 3000
多云层高于1000英尺
轻雾

TAF: EDDS 220500Z 2206/2306 VRB03KT 7000 SCT007 TEMPO 2206/2212 3000 BR BKN005 PROB30 TEMPO 2300/2306 3000 BR BKN010

超过4000个机场的气象观测和天气预报(METAR&TAF报告)。

可查询的气象台以黄色和红色小点在地图上表示。

将鼠标移到小点上方,可查看气象台名称。

然后点击查看天气观测和预报。

如需切换地图:点击带黑十字的绿色按钮放大地图;点击带横线的绿色按钮缩小地图;或者点击绿色箭头查看邻近地区的地图。


METAR-TAF: